Time;durP1;ratioP1;P1;durP2;ratioP2;P2;SDS_P1;SDS_P2;PMS_P1;PMS_P2;Temp;Humidity;BMP_temperature;BMP_pressure;BME280_temperature;BME280_humidity;BME280_pressure;Samples;Min_cycle;Max_cycle;Signal;HPM_P1;HPM_P2
2022/07/23 00:01:30;;;;;;;8.98;7.57;;;32.40;52.00;;;;;;5052224;28;20059;-78
2022/07/23 00:03:56;;;;;;;9.70;7.20;;;32.10;52.20;;;;;;5052513;28;20083;-78
2022/07/23 00:06:23;;;;;;;10.60;6.75;;;31.90;52.50;;;;;;5068093;28;20032;-78
2022/07/23 00:08:50;;;;;;;10.32;7.50;;;31.70;52.50;;;;;;5060758;28;20039;-77
2022/07/23 00:11:16;;;;;;;9.40;6.53;;;31.70;52.40;;;;;;5047070;28;20036;-77
2022/07/23 00:13:42;;;;;;;8.68;6.70;;;31.70;52.30;;;;;;5069263;28;20024;-78
2022/07/23 00:16:08;;;;;;;8.57;6.47;;;31.60;52.50;;;;;;5075741;28;20024;-79
2022/07/23 00:18:35;;;;;;;7.90;6.22;;;31.60;52.50;;;;;;5068071;28;20029;-77
2022/07/23 00:21:01;;;;;;;8.52;6.80;;;31.60;52.60;;;;;;5042749;28;20077;-77
2022/07/23 00:23:28;;;;;;;9.20;6.30;;;31.80;52.30;;;;;;5058395;28;20052;-78
2022/07/23 00:25:54;;;;;;;8.25;6.57;;;31.60;52.70;;;;;;5057463;28;20090;-77
2022/07/23 00:28:20;;;;;;;7.88;6.30;;;31.70;52.60;;;;;;5054240;28;20032;-77
2022/07/23 00:30:46;;;;;;;9.85;6.78;;;31.70;52.40;;;;;;5074884;28;20025;-77
2022/07/23 00:33:12;;;;;;;7.95;7.15;;;31.80;52.60;;;;;;5075570;28;20082;-78
2022/07/23 00:35:40;;;;;;;9.48;6.72;;;31.90;52.40;;;;;;5074997;28;20107;-78
2022/07/23 00:38:07;;;;;;;7.88;6.70;;;31.80;52.30;;;;;;5056595;28;20098;-77
2022/07/23 00:40:33;;;;;;;9.93;6.30;;;31.90;51.90;;;;;;5073214;28;20452;-77
2022/07/23 00:42:59;;;;;;;12.00;6.75;;;31.90;51.80;;;;;;5055595;28;20041;-78
2022/07/23 00:45:27;;;;;;;7.22;6.03;;;31.80;51.60;;;;;;5076271;28;20383;-77
2022/07/23 00:47:52;;;;;;;7.47;6.28;;;31.70;51.90;;;;;;5075047;28;20024;-77
2022/07/23 00:50:18;;;;;;;8.90;6.60;;;31.40;51.90;;;;;;5073922;28;20376;-82
2022/07/23 00:52:44;;;;;;;6.88;6.18;;;31.30;52.00;;;;;;5073284;28;21541;-77
2022/07/23 00:55:11;;;;;;;8.60;5.97;;;31.30;52.20;;;;;;5074648;28;20360;-78
2022/07/23 00:57:38;;;;;;;8.55;6.68;;;31.20;51.90;;;;;;5074378;28;20029;-77
2022/07/23 01:00:06;;;;;;;7.60;6.50;;;31.20;52.00;;;;;;5053047;28;20017;-76
2022/07/23 01:02:32;;;;;;;11.63;6.75;;;31.10;52.00;;;;;;5056119;28;20029;-77
2022/07/23 01:04:58;;;;;;;7.93;6.90;;;31.00;51.90;;;;;;5073502;28;20383;-77
2022/07/23 01:07:24;;;;;;;10.00;6.22;;;31.00;51.70;;;;;;5074466;28;20490;-78
2022/07/23 01:09:51;;;;;;;7.80;6.40;;;30.80;52.30;;;;;;5073469;28;20037;-80
2022/07/23 01:12:17;;;;;;;8.85;5.95;;;30.60;53.30;;;;;;5055482;28;20115;-76
2022/07/23 01:14:43;;;;;;;11.15;6.45;;;30.40;52.60;;;;;;5057176;28;20131;-77
2022/07/23 01:17:08;;;;;;;9.27;6.47;;;30.60;52.50;;;;;;5056871;28;20034;-76
2022/07/23 01:19:34;;;;;;;8.68;6.35;;;30.60;53.00;;;;;;5073826;28;20032;-77
2022/07/23 01:22:02;;;;;;;10.60;6.30;;;30.60;52.70;;;;;;5073122;28;20036;-77
2022/07/23 01:24:28;;;;;;;7.88;6.53;;;30.80;52.40;;;;;;5073292;28;20057;-76
2022/07/23 01:26:54;;;;;;;8.00;6.20;;;30.80;52.20;;;;;;5054138;28;20418;-77
2022/07/23 01:29:21;;;;;;;8.60;6.35;;;30.90;52.10;;;;;;5073960;28;20498;-76
2022/07/23 01:31:47;;;;;;;9.13;6.63;;;30.90;52.20;;;;;;5072392;28;20016;-76
2022/07/23 01:34:13;;;;;;;10.02;6.25;;;30.80;52.30;;;;;;5073419;28;20506;-77
2022/07/23 01:36:39;;;;;;;8.00;6.28;;;30.90;52.30;;;;;;5072210;28;20020;-77
2022/07/23 01:39:06;;;;;;;11.38;6.10;;;30.90;52.10;;;;;;5057958;28;20090;-76
2022/07/23 01:41:33;;;;;;;10.35;7.65;;;30.90;51.90;;;;;;5073451;28;20024;-77
2022/07/23 01:43:58;;;;;;;9.75;7.18;;;30.80;52.10;;;;;;5056397;28;20041;-76
2022/07/23 01:46:24;;;;;;;9.98;7.20;;;30.80;52.20;;;;;;5075106;28;20051;-78
2022/07/23 01:48:50;;;;;;;8.73;6.97;;;30.60;52.80;;;;;;5058216;28;20055;-77
2022/07/23 01:51:16;;;;;;;9.20;6.57;;;30.50;52.30;;;;;;5056537;28;20022;-81
2022/07/23 01:53:42;;;;;;;9.00;6.95;;;30.50;52.70;;;;;;5056242;28;20036;-76
2022/07/23 01:56:08;;;;;;;7.43;6.63;;;30.40;53.00;;;;;;5053553;28;20123;-76
2022/07/23 01:58:33;;;;;;;7.03;6.32;;;30.40;53.00;;;;;;5055280;28;20020;-77
2022/07/23 02:00:59;;;;;;;9.15;6.65;;;30.30;53.20;;;;;;5053125;28;20036;-75
2022/07/23 02:03:25;;;;;;;10.95;6.95;;;30.20;53.50;;;;;;5073769;28;20044;-79
2022/07/23 02:05:51;;;;;;;12.10;6.57;;;30.30;53.20;;;;;;5051588;28;20031;-75
2022/07/23 02:08:17;;;;;;;7.57;6.20;;;30.30;53.40;;;;;;5061154;28;20028;-75
2022/07/23 02:10:44;;;;;;;8.32;6.47;;;30.40;53.30;;;;;;5071480;28;20464;-75
2022/07/23 02:13:09;;;;;;;10.15;6.88;;;30.30;53.20;;;;;;5073225;28;20103;-75
2022/07/23 02:15:35;;;;;;;10.63;6.80;;;30.30;53.50;;;;;;5071088;28;20494;-75
2022/07/23 02:18:01;;;;;;;9.73;7.10;;;30.20;53.40;;;;;;5069101;28;20040;-76
2022/07/23 02:20:27;;;;;;;11.55;6.72;;;30.10;53.50;;;;;;5054424;28;20468;-80
2022/07/23 02:22:52;;;;;;;6.90;6.20;;;30.10;53.70;;;;;;5055010;28;20032;-76
2022/07/23 02:25:18;;;;;;;13.00;6.60;;;29.90;53.70;;;;;;5055227;28;20095;-77
2022/07/23 02:27:44;;;;;;;10.57;6.78;;;30.00;53.50;;;;;;5071696;28;20036;-79
2022/07/23 02:30:10;;;;;;;9.40;6.40;;;29.90;53.50;;;;;;5055016;28;20433;-75
2022/07/23 02:32:36;;;;;;;8.85;6.35;;;30.10;53.40;;;;;;5072260;28;20067;-74
2022/07/23 02:35:03;;;;;;;8.68;6.60;;;30.20;53.30;;;;;;5072183;28;20024;-75
2022/07/23 02:37:29;;;;;;;9.07;6.53;;;30.20;53.10;;;;;;5054790;28;20028;-75
2022/07/23 02:39:55;;;;;;;8.07;6.32;;;30.30;53.20;;;;;;5072928;28;20070;-75
2022/07/23 02:42:20;;;;;;;7.53;6.10;;;30.30;53.00;;;;;;5072807;28;20032;-75
2022/07/23 02:44:46;;;;;;;9.27;6.57;;;30.30;53.20;;;;;;5063223;28;20025;-75
2022/07/23 02:47:12;;;;;;;12.18;6.53;;;30.40;52.80;;;;;;5054460;28;20028;-80
2022/07/23 02:49:38;;;;;;;11.65;6.88;;;30.50;52.80;;;;;;5055995;28;20029;-75
2022/07/23 02:52:04;;;;;;;9.48;6.72;;;30.40;52.70;;;;;;5052401;28;20032;-75
2022/07/23 02:54:30;;;;;;;7.95;6.68;;;30.40;52.70;;;;;;5054491;28;20086;-76
2022/07/23 02:56:55;;;;;;;9.25;6.88;;;30.20;52.90;;;;;;5068523;28;20029;-78
2022/07/23 02:59:21;;;;;;;9.55;6.38;;;29.90;53.10;;;;;;5054381;28;20530;-75
2022/07/23 03:01:47;;;;;;;9.32;6.60;;;29.80;53.20;;;;;;5072943;28;20024;-76
2022/07/23 03:04:12;;;;;;;8.65;6.18;;;29.70;53.70;;;;;;5055218;28;20045;-75
2022/07/23 03:06:39;;;;;;;7.35;6.30;;;29.60;54.10;;;;;;5055315;28;20029;-75
2022/07/23 03:09:06;;;;;;;9.18;6.80;;;29.70;54.10;;;;;;5072549;28;20554;-76
2022/07/23 03:11:31;;;;;;;9.13;7.03;;;29.70;54.70;;;;;;5053992;28;20059;-76
2022/07/23 03:13:57;;;;;;;8.55;6.43;;;29.50;55.20;;;;;;5069008;28;20387;-76
2022/07/23 03:16:23;;;;;;;8.77;6.70;;;29.50;54.70;;;;;;5054148;28;20060;-76
2022/07/23 03:18:49;;;;;;;7.00;6.20;;;29.40;54.00;;;;;;5073527;28;20084;-80
2022/07/23 03:21:14;;;;;;;8.20;6.00;;;29.60;53.20;;;;;;5065425;28;20052;-80
2022/07/23 03:23:40;;;;;;;12.20;5.43;;;29.70;53.20;;;;;;5068019;28;20483;-75
2022/07/23 03:26:06;;;;;;;7.15;5.35;;;29.80;51.20;;;;;;5054528;28;20547;-79
2022/07/23 03:28:32;;;;;;;7.93;5.85;;;29.90;50.60;;;;;;5054232;28;20028;-79
2022/07/23 03:30:58;;;;;;;6.88;5.70;;;30.20;50.80;;;;;;5072231;28;20020;-76
2022/07/23 03:33:23;;;;;;;8.18;5.90;;;30.40;50.90;;;;;;5054624;28;20433;-75
2022/07/23 03:35:49;;;;;;;8.55;5.90;;;30.40;50.90;;;;;;5072751;28;20063;-76
2022/07/23 03:38:15;;;;;;;8.55;5.75;;;30.40;50.80;;;;;;5056924;28;20395;-75
2022/07/23 03:40:41;;;;;;;8.60;5.90;;;30.50;51.10;;;;;;5038233;28;20033;-76
2022/07/23 03:43:07;;;;;;;9.30;5.47;;;30.60;51.20;;;;;;5052484;28;20044;-78
2022/07/23 03:45:33;;;;;;;7.72;5.50;;;30.70;51.30;;;;;;5076298;28;20074;-75
2022/07/23 03:47:59;;;;;;;7.28;5.18;;;30.60;50.90;;;;;;5076624;28;20111;-79
2022/07/23 03:50:25;;;;;;;6.70;5.43;;;30.80;50.60;;;;;;5058144;28;20108;-76
2022/07/23 03:52:51;;;;;;;8.88;5.95;;;30.90;50.40;;;;;;5076546;28;20048;-76
2022/07/23 03:55:17;;;;;;;7.35;5.20;;;31.10;50.40;;;;;;5075513;28;20071;-81
2022/07/23 03:57:43;;;;;;;10.82;5.63;;;31.10;50.70;;;;;;5059208;28;20032;-75
2022/07/23 04:00:09;;;;;;;9.10;5.38;;;31.20;50.60;;;;;;5075480;28;20387;-79
2022/07/23 04:02:37;;;;;;;9.73;5.65;;;31.20;50.90;;;;;;5058176;28;20034;-83
2022/07/23 04:05:04;;;;;;;6.43;5.10;;;31.30;50.40;;;;;;5076217;28;20024;-79
2022/07/23 04:07:30;;;;;;;8.40;5.18;;;31.40;49.10;;;;;;5057583;28;20450;-78
2022/07/23 04:09:56;;;;;;;7.63;5.53;;;31.60;49.40;;;;;;5056922;28;20035;-78
2022/07/23 04:12:21;;;;;;;11.65;5.82;;;31.50;49.40;;;;;;5058550;28;20028;-81
2022/07/23 04:14:47;;;;;;;6.90;5.00;;;31.60;49.50;;;;;;5057509;28;20108;-81
2022/07/23 04:17:13;;;;;;;9.05;5.32;;;31.80;49.90;;;;;;5057141;28;20118;-78
2022/07/23 04:19:43;;;;;;;9.38;5.57;;;31.80;49.60;;;;;;5058152;28;20025;-78
2022/07/23 04:22:10;;;;;;;6.40;5.40;;;31.90;50.00;;;;;;5057422;28;20430;-78
2022/07/23 04:24:36;;;;;;;8.35;5.03;;;32.00;50.20;;;;;;5075593;28;20399;-82
2022/07/23 04:27:02;;;;;;;7.65;5.65;;;32.10;50.00;;;;;;5074819;28;20028;-78
2022/07/23 04:29:28;;;;;;;9.98;5.38;;;32.20;50.10;;;;;;5057322;28;20099;-79
2022/07/23 04:31:53;;;;;;;9.00;5.45;;;32.20;50.10;;;;;;5057494;28;20031;-79
2022/07/23 04:34:21;;;;;;;12.30;5.97;;;32.10;49.80;;;;;;5057018;28;20086;-79
2022/07/23 04:36:47;;;;;;;8.35;5.43;;;32.00;50.00;;;;;;5066304;28;20031;-79
2022/07/23 04:39:14;;;;;;;11.07;6.07;;;32.10;49.80;;;;;;5038603;28;20071;-78
2022/07/23 04:41:39;;;;;;;7.65;5.05;;;32.20;50.30;;;;;;5052036;28;20031;-81
2022/07/23 04:44:05;;;;;;;9.65;5.63;;;32.20;50.40;;;;;;5057383;28;20120;-79
2022/07/23 04:46:31;;;;;;;11.90;5.90;;;32.10;50.00;;;;;;5074007;28;20024;-78
2022/07/23 04:48:57;;;;;;;13.35;5.68;;;31.90;50.70;;;;;;5076469;28;20529;-80
2022/07/23 04:51:23;;;;;;;7.05;5.35;;;31.80;51.30;;;;;;5073223;28;20028;-83
2022/07/23 04:53:49;;;;;;;11.50;5.53;;;31.90;51.70;;;;;;5056437;28;20437;-83
2022/07/23 04:56:15;;;;;;;10.40;6.07;;;32.00;52.20;;;;;;5055454;28;20033;-79
2022/07/23 04:58:41;;;;;;;10.23;5.72;;;32.10;51.60;;;;;;5073427;28;20024;-81
2022/07/23 05:01:06;;;;;;;13.65;5.30;;;32.10;51.90;;;;;;5056721;28;20017;-81
2022/07/23 05:03:32;;;;;;;11.75;5.70;;;32.00;51.40;;;;;;5056800;28;20059;-82
2022/07/23 05:05:58;;;;;;;10.23;5.50;;;32.10;51.20;;;;;;5075802;28;20078;-78
2022/07/23 05:08:24;;;;;;;7.50;5.60;;;32.10;50.60;;;;;;5053717;28;20029;-81
2022/07/23 05:10:50;;;;;;;7.38;5.03;;;32.30;50.40;;;;;;5055665;28;20040;-87
2022/07/23 05:13:16;;;;;;;10.85;5.80;;;32.40;50.00;;;;;;5066203;28;20033;-78
2022/07/23 05:15:44;;;;;;;7.95;5.03;;;32.60;49.70;;;;;;5054905;28;20029;-78
2022/07/23 05:18:09;;;;;;;9.25;5.30;;;32.60;50.40;;;;;;5037834;28;20131;-79
2022/07/23 05:20:35;;;;;;;8.52;5.78;;;32.60;50.20;;;;;;5071188;28;20024;-79
2022/07/23 05:23:01;;;;;;;9.90;5.38;;;32.50;51.10;;;;;;5051353;28;20510;-83
2022/07/23 05:25:27;;;;;;;7.90;5.15;;;32.50;51.70;;;;;;5067842;28;20029;-78
2022/07/23 05:27:52;;;;;;;9.60;5.18;;;32.60;51.70;;;;;;5061064;28;20039;-80
2022/07/23 05:30:18;;;;;;;10.85;5.28;;;32.70;49.00;;;;;;5066725;28;20024;-78
2022/07/23 05:32:44;;;;;;;8.18;4.70;;;32.50;48.40;;;;;;5074284;28;20029;-76
2022/07/23 05:35:11;;;;;;;7.22;4.57;;;32.30;48.60;;;;;;5073740;28;20468;-78
2022/07/23 05:37:36;;;;;;;6.93;5.00;;;32.00;48.50;;;;;;5044709;28;20051;-79
2022/07/23 05:40:08;;;;;;;8.25;5.32;;;32.00;49.40;;;;;;5050130;28;20107;-82
2022/07/23 05:42:36;;;;;;;6.95;5.00;;;32.40;49.10;;;;;;5050514;28;20072;-87
2022/07/23 05:45:05;;;;;;;8.95;5.93;;;32.90;49.00;;;;;;5056681;28;20028;-83
2022/07/23 05:47:47;;;;;;;10.85;5.43;;;33.20;48.10;;;;;;5074381;28;20057;-79
2022/07/23 05:50:14;;;;;;;9.35;4.80;;;33.40;47.50;;;;;;5056712;28;20119;-81
2022/07/23 05:52:41;;;;;;;10.75;5.45;;;33.70;47.60;;;;;;5057373;28;20103;-85
2022/07/23 05:55:08;;;;;;;7.57;5.22;;;33.90;47.20;;;;;;5057730;28;20024;-79
2022/07/23 05:57:34;;;;;;;14.55;5.38;;;34.10;47.60;;;;;;5048418;28;20107;-78
2022/07/23 06:00:00;;;;;;;9.55;5.30;;;34.30;47.40;;;;;;5075277;28;20108;-82
2022/07/23 06:02:26;;;;;;;8.05;4.97;;;34.20;47.50;;;;;;5075662;28;20021;-87
2022/07/23 06:04:52;;;;;;;7.57;4.85;;;34.20;47.60;;;;;;5061633;28;20029;-82
2022/07/23 06:07:17;;;;;;;9.52;4.95;;;34.40;47.70;;;;;;5037060;28;20032;-83
2022/07/23 06:09:43;;;;;;;10.23;5.72;;;34.50;47.80;;;;;;5037581;28;20029;-82
2022/07/23 06:12:10;;;;;;;9.88;4.80;;;34.70;47.20;;;;;;5040845;28;20028;-82
2022/07/23 06:14:36;;;;;;;10.73;4.70;;;34.60;46.60;;;;;;5071707;28;20024;-80
2022/07/23 06:17:02;;;;;;;9.63;4.70;;;34.10;47.30;;;;;;5073097;28;20036;-82
2022/07/23 06:19:27;;;;;;;9.40;5.13;;;34.10;47.10;;;;;;5073669;28;20028;-83
2022/07/23 06:21:53;;;;;;;8.20;4.57;;;33.70;47.30;;;;;;5074020;28;20490;-80
2022/07/23 06:24:19;;;;;;;7.07;5.13;;;33.60;47.20;;;;;;5071753;28;20041;-86
2022/07/23 06:26:44;;;;;;;7.97;5.68;;;33.40;48.00;;;;;;5056407;28;20454;-83
2022/07/23 06:29:10;;;;;;;9.18;5.10;;;33.60;47.60;;;;;;5055401;28;20035;-82
2022/07/23 06:31:36;;;;;;;14.50;5.25;;;33.80;47.80;;;;;;5056977;28;20030;-80
2022/07/23 06:34:01;;;;;;;7.78;5.13;;;34.20;46.80;;;;;;5063420;28;20035;-80
2022/07/23 06:36:27;;;;;;;14.18;5.60;;;33.80;47.10;;;;;;5050964;28;20098;-80
2022/07/23 06:38:53;;;;;;;7.15;5.03;;;33.30;47.80;;;;;;5056125;28;20062;-77
2022/07/23 06:41:19;;;;;;;9.43;5.00;;;33.40;48.50;;;;;;5061168;28;20029;-80
2022/07/23 06:43:44;;;;;;;10.65;5.68;;;33.50;47.70;;;;;;4714308;28;10000555;-79
2022/07/23 06:46:10;;;;;;;10.48;4.70;;;33.90;47.60;;;;;;5069437;28;20044;-90
2022/07/23 06:48:36;;;;;;;11.32;5.55;;;34.50;47.40;;;;;;5069083;28;20416;-85
2022/07/23 06:51:03;;;;;;;8.70;5.25;;;35.00;46.90;;;;;;5049862;28;20024;-85
2022/07/23 06:53:29;;;;;;;8.63;4.88;;;35.30;46.10;;;;;;5048905;28;20024;-82
2022/07/23 06:55:54;;;;;;;9.18;4.75;;;35.30;47.20;;;;;;5041600;28;20444;-85
2022/07/23 06:58:20;;;;;;;10.38;5.00;;;35.40;46.60;;;;;;5036415;28;20052;-83
2022/07/23 07:00:46;;;;;;;7.85;4.82;;;35.60;46.40;;;;;;5069216;28;20040;-82
2022/07/23 07:03:12;;;;;;;9.68;4.55;;;35.70;46.20;;;;;;5055816;28;20055;-89
2022/07/23 07:05:39;;;;;;;11.63;4.35;;;35.60;45.30;;;;;;5060580;28;20490;-81
2022/07/23 07:08:05;;;;;;;8.40;4.43;;;35.80;46.50;;;;;;5058200;28;20029;-86
2022/07/23 07:10:31;;;;;;;12.15;4.88;;;36.00;44.60;;;;;;5054555;28;20017;-79
2022/07/23 07:12:57;;;;;;;8.98;4.60;;;36.10;44.40;;;;;;5041131;28;20029;-81
2022/07/23 07:15:23;;;;;;;15.07;5.00;;;36.20;44.40;;;;;;5046755;28;20032;-79
2022/07/23 07:17:48;;;;;;;8.48;4.63;;;36.20;44.30;;;;;;5052469;28;20058;-79
2022/07/23 07:20:14;;;;;;;9.95;4.60;;;36.20;44.50;;;;;;5045471;28;20025;-76
2022/07/23 07:22:42;;;;;;;9.02;4.35;;;36.10;44.10;;;;;;5048536;28;20051;-79
2022/07/23 07:25:08;;;;;;;9.18;4.50;;;35.90;44.60;;;;;;5043022;28;20180;-80
2022/07/23 07:27:34;;;;;;;8.50;4.90;;;35.90;44.30;;;;;;5064584;28;20028;-77
2022/07/23 07:30:00;;;;;;;11.05;4.90;;;36.10;44.40;;;;;;5065930;28;20029;-79
2022/07/23 07:32:26;;;;;;;10.15;4.85;;;36.30;44.10;;;;;;5053641;28;20021;-83
2022/07/23 07:34:51;;;;;;;9.80;4.53;;;36.50;44.00;;;;;;5048439;28;20032;-79
2022/07/23 07:37:17;;;;;;;9.88;5.03;;;36.80;44.50;;;;;;5055329;28;20020;-77
2022/07/23 07:39:43;;;;;;;11.95;5.25;;;37.10;44.30;;;;;;5036558;28;20164;-81
2022/07/23 07:42:09;;;;;;;6.05;4.13;;;37.30;43.40;;;;;;5047679;28;20472;-81
2022/07/23 07:44:34;;;;;;;10.25;4.60;;;37.40;43.70;;;;;;5036974;28;20044;-77
2022/07/23 07:47:00;;;;;;;11.82;5.07;;;37.50;43.90;;;;;;5044697;28;20090;-78
2022/07/23 07:49:26;;;;;;;14.13;4.82;;;37.50;42.90;;;;;;4718281;28;10000263;-81
2022/07/23 07:51:51;;;;;;;8.43;4.70;;;37.50;43.00;;;;;;5071178;28;20013;-80
2022/07/23 07:54:17;;;;;;;14.13;5.07;;;37.50;42.60;;;;;;5053066;28;20090;-85
2022/07/23 07:56:49;;;;;;;22.10;5.43;;;37.40;42.50;;;;;;5048467;28;20032;-82
2022/07/23 07:59:14;;;;;;;11.38;4.07;;;37.40;42.10;;;;;;5041417;28;20029;-79
2022/07/23 08:01:41;;;;;;;21.35;5.05;;;37.50;42.70;;;;;;5046414;28;20467;-79
2022/07/23 08:04:06;;;;;;;8.93;4.60;;;37.70;42.90;;;;;;5042937;28;20578;-78
2022/07/23 08:06:32;;;;;;;6.90;5.05;;;37.90;43.00;;;;;;5065508;28;20024;-81
2022/07/23 08:08:58;;;;;;;9.07;4.80;;;38.00;42.30;;;;;;5053178;28;20029;-79
2022/07/23 08:11:24;;;;;;;8.32;4.53;;;38.10;42.60;;;;;;5052547;28;20112;-81
2022/07/23 08:13:50;;;;;;;33.03;5.80;;;38.40;43.50;;;;;;5069026;28;20043;-84
2022/07/23 08:16:15;;;;;;;9.70;4.65;;;38.80;42.00;;;;;;5068395;28;20024;-77
2022/07/23 08:18:41;;;;;;;8.27;4.63;;;38.60;41.40;;;;;;5038869;28;20354;-79
2022/07/23 08:21:07;;;;;;;8.30;4.53;;;38.60;42.10;;;;;;5063578;28;20033;-82
2022/07/23 08:23:34;;;;;;;9.18;4.90;;;38.60;42.10;;;;;;5040182;28;20052;-80
2022/07/23 08:26:00;;;;;;;8.90;4.68;;;38.50;41.50;;;;;;5053337;28;20025;-79
2022/07/23 08:28:27;;;;;;;8.55;4.38;;;38.40;41.40;;;;;;5043162;28;20146;-79
2022/07/23 08:30:52;;;;;;;7.07;5.00;;;38.50;42.50;;;;;;5052485;28;20029;-80
2022/07/23 08:33:19;;;;;;;11.30;4.90;;;38.80;42.10;;;;;;5072531;28;20075;-80
2022/07/23 08:35:47;;;;;;;7.88;4.32;;;38.90;42.20;;;;;;5071477;28;20044;-80
2022/07/23 08:38:15;;;;;;;15.32;4.80;;;39.10;42.50;;;;;;5049111;28;20033;-75
2022/07/23 08:40:58;;;;;;;23.55;6.07;;;39.20;42.40;;;;;;5072379;28;20035;-76
2022/07/23 08:43:29;;;;;;;10.15;4.50;;;39.20;42.20;;;;;;5055537;28;20035;-78
2022/07/23 08:45:57;;;;;;;6.53;4.60;;;39.60;42.90;;;;;;5046477;28;20503;-76
2022/07/23 08:48:25;;;;;;;9.18;4.25;;;39.70;42.00;;;;;;5044833;28;20543;-81
2022/07/23 08:50:55;;;;;;;9.88;4.75;;;39.80;42.40;;;;;;5063197;28;20028;-79
2022/07/23 08:53:22;;;;;;;9.90;4.80;;;40.00;41.80;;;;;;5058145;28;20104;-81
2022/07/23 08:55:49;;;;;;;9.73;4.50;;;40.10;41.80;;;;;;5036784;28;20040;-81
2022/07/23 08:58:16;;;;;;;14.13;4.43;;;40.10;42.00;;;;;;5072960;28;20020;-80
2022/07/23 09:00:43;;;;;;;8.93;4.43;;;40.40;41.50;;;;;;5068462;28;20066;-77
2022/07/23 09:03:21;;;;;;;8.77;4.22;;;40.20;40.80;;;;;;5066607;28;20045;-76
2022/07/23 09:05:55;;;;;;;7.07;4.30;;;39.90;41.70;;;;;;5068236;28;20398;-77
2022/07/23 09:08:25;;;;;;;7.95;4.22;;;40.00;41.60;;;;;;5071775;28;20082;-78
2022/07/23 09:10:59;;;;;;;12.55;4.45;;;40.00;40.80;;;;;;5037268;28;20031;-79
2022/07/23 09:13:47;;;;;;;10.43;4.75;;;39.90;40.70;;;;;;5053898;28;20064;-78
2022/07/23 09:16:19;;;;;;;9.13;4.60;;;39.60;41.20;;;;;;5041080;28;20032;-84
2022/07/23 09:18:56;;;;;;;9.38;4.10;;;39.90;42.90;;;;;;5055022;28;20029;-84
2022/07/23 09:21:24;;;;;;;8.82;4.85;;;40.50;41.90;;;;;;5062785;28;20353;-75
2022/07/23 09:23:52;;;;;;;10.23;4.60;;;40.60;40.80;;;;;;5051162;28;20049;-80
2022/07/23 09:26:20;;;;;;;11.00;4.80;;;40.40;41.40;;;;;;5071857;28;20083;-87
2022/07/23 09:28:55;;;;;;;8.80;4.50;;;40.60;40.90;;;;;;5072797;28;20105;-80
2022/07/23 09:31:22;;;;;;;8.43;3.92;;;41.10;42.30;;;;;;5053452;28;20035;-81
2022/07/23 09:33:48;;;;;;;8.35;4.53;;;40.90;40.60;;;;;;5056278;28;20498;-82
2022/07/23 09:36:14;;;;;;;8.52;4.68;;;41.10;41.70;;;;;;5056488;28;20060;-83
2022/07/23 09:38:50;;;;;;;10.40;4.80;;;41.30;40.60;;;;;;5072120;28;20393;-86
2022/07/23 09:41:16;;;;;;;10.38;4.68;;;41.10;42.10;;;;;;5056789;28;20035;-81
2022/07/23 09:43:42;;;;;;;9.73;4.25;;;41.30;43.00;;;;;;5074085;28;20047;-83
2022/07/23 09:46:24;;;;;;;6.25;4.50;;;41.60;40.00;;;;;;5074886;28;20031;-81
2022/07/23 09:48:51;;;;;;;9.50;4.50;;;41.80;40.30;;;;;;5072871;28;20044;-81
2022/07/23 09:53:50;;;;;;;14.23;5.22;;;41.70;39.90;;;;;;5071369;28;20029;-89
2022/07/23 09:56:18;;;;;;;10.82;4.80;;;41.50;40.90;;;;;;5054686;28;20045;-80
2022/07/23 09:59:27;;;;;;;6.70;4.70;;;41.60;40.40;;;;;;5070628;28;20434;-79
2022/07/23 10:01:34;;;;;;;10.02;4.93;;;41.20;40.60;;;;;;5062791;28;20130;-84
2022/07/23 10:04:01;;;;;;;9.02;4.70;;;41.70;42.30;;;;;;5049592;28;20041;-77
2022/07/23 10:06:29;;;;;;;9.88;4.72;;;41.90;40.60;;;;;;5036131;28;20060;-81
2022/07/23 10:08:58;;;;;;;6.45;3.97;;;41.60;40.40;;;;;;5051773;28;20384;-82
2022/07/23 10:11:25;;;;;;;9.18;4.55;;;41.80;40.50;;;;;;4717434;28;10000349;-82
2022/07/23 10:16:17;;;;;;;11.63;4.82;;;41.10;40.10;;;;;;5060124;28;20032;-87
2022/07/23 10:18:43;;;;;;;8.57;4.60;;;41.10;41.30;;;;;;5054777;28;20049;-80
2022/07/23 10:21:10;;;;;;;13.90;4.95;;;41.50;40.70;;;;;;5054230;28;20476;-79
2022/07/23 10:23:57;;;;;;;9.45;4.60;;;41.70;40.30;;;;;;5033798;28;20144;-85
2022/07/23 10:26:52;;;;;;;7.45;4.60;;;42.10;40.80;;;;;;5054904;28;20472;-84
2022/07/23 10:29:35;;;;;;;8.80;4.72;;;42.50;42.30;;;;;;5053186;28;20029;-87
2022/07/23 10:32:15;;;;;;;7.50;4.55;;;42.50;39.50;;;;;;5051782;28;20021;-86
2022/07/23 10:35:07;;;;;;;5.88;4.22;;;42.10;40.30;;;;;;5054482;28;20372;-80
2022/07/23 10:37:49;;;;;;;7.35;4.60;;;42.40;39.70;;;;;;5050152;28;20032;-82
2022/07/23 10:40:18;;;;;;;11.57;5.45;;;42.70;40.20;;;;;;4698988;28;10000099;-79
2022/07/23 10:42:45;;;;;;;9.50;4.65;;;42.50;39.80;;;;;;5045510;28;20036;-81
2022/07/23 10:45:26;;;;;;;7.40;4.88;;;42.10;40.50;;;;;;5047383;28;20086;-85
2022/07/23 10:47:53;;;;;;;13.30;5.30;;;41.90;40.10;;;;;;5051044;28;20087;-78
2022/07/23 10:50:19;;;;;;;10.85;5.22;;;41.80;39.50;;;;;;5051033;28;20090;-81
2022/07/23 10:53:08;;;;;;;9.82;5.10;;;41.70;40.10;;;;;;5039533;28;20091;-81
2022/07/23 10:55:33;;;;;;;10.27;4.85;;;41.80;40.30;;;;;;5029519;28;20029;-86
2022/07/23 10:58:00;;;;;;;7.15;4.80;;;41.50;40.30;;;;;;5036988;28;20028;-86
2022/07/23 11:00:28;;;;;;;6.72;4.30;;;41.50;40.70;;;;;;5047358;28;20052;-88
2022/07/23 11:02:56;;;;;;;9.93;4.88;;;41.60;40.40;;;;;;5050110;28;20492;-80
2022/07/23 11:05:25;;;;;;;7.07;4.50;;;41.40;40.40;;;;;;5049142;28;20116;-81
2022/07/23 11:08:07;;;;;;;8.10;5.07;;;41.20;40.20;;;;;;5038259;28;20036;-78
2022/07/23 11:11:03;;;;;;;8.30;4.75;;;40.50;40.30;;;;;;5036379;28;20108;-80
2022/07/23 11:13:40;;;;;;;12.00;5.00;;;40.30;41.20;;;;;;5035068;28;20079;-78
2022/07/23 11:16:08;;;;;;;8.95;4.90;;;40.50;40.80;;;;;;5043916;28;20104;-80
2022/07/23 11:18:40;;;;;;;7.47;4.80;;;41.10;40.90;;;;;;5038619;28;20397;-81
2022/07/23 11:21:28;;;;;;;7.68;5.82;;;41.40;40.90;;;;;;5046607;28;20044;-82
2022/07/23 11:23:58;;;;;;;8.23;6.13;;;41.30;40.60;;;;;;5048609;28;20056;-83
2022/07/23 11:26:53;;;;;;;7.50;4.97;;;41.30;40.60;;;;;;5052539;28;20106;-88
2022/07/23 11:29:40;;;;;;;8.30;5.35;;;41.70;40.00;;;;;;5048868;28;20022;-92
2022/07/23 11:32:27;;;;;;;8.45;5.50;;;42.00;39.70;;;;;;5040070;28;20087;-85
2022/07/23 11:34:53;;;;;;;8.60;5.20;;;42.30;40.80;;;;;;5037720;28;20538;-84
2022/07/23 11:37:46;;;;;;;11.35;5.10;;;42.40;39.70;;;;;;5043488;28;20108;-85
2022/07/23 11:40:14;;;;;;;8.45;5.10;;;42.20;39.80;;;;;;5042570;28;20025;-84
2022/07/23 11:42:55;;;;;;;6.55;5.38;;;42.20;40.00;;;;;;5038259;28;20026;-80
2022/07/23 11:45:22;;;;;;;6.75;5.03;;;42.10;40.00;;;;;;5042214;28;20100;-85
2022/07/23 11:47:47;;;;;;;7.57;4.72;;;41.80;40.10;;;;;;5040168;28;20057;-85
2022/07/23 11:50:13;;;;;;;9.57;5.38;;;41.90;40.00;;;;;;5045599;28;20567;-85
2022/07/23 11:52:39;;;;;;;9.15;4.45;;;42.10;41.20;;;;;;5035818;28;20026;-88
2022/07/23 11:55:16;;;;;;;7.80;4.75;;;42.40;40.70;;;;;;5050051;28;20033;-81
2022/07/23 11:57:51;;;;;;;9.25;5.07;;;42.70;40.00;;;;;;5045550;28;20120;-82
2022/07/23 12:00:21;;;;;;;7.63;5.07;;;42.80;40.10;;;;;;5038487;28;20112;-89
2022/07/23 12:03:01;;;;;;;11.45;5.35;;;42.80;40.20;;;;;;5036998;28;20424;-87
2022/07/23 12:05:33;;;;;;;8.75;5.40;;;42.50;40.20;;;;;;5054308;28;20480;-86
2022/07/23 12:08:00;;;;;;;7.07;4.85;;;42.60;40.40;;;;;;5055560;28;20025;-88
2022/07/23 12:10:30;;;;;;;8.43;5.10;;;42.80;40.50;;;;;;5049357;28;20048;-82
2022/07/23 12:13:10;;;;;;;8.30;5.32;;;42.70;39.80;;;;;;5055956;28;20025;-86
2022/07/23 12:15:52;;;;;;;8.23;5.10;;;42.60;39.60;;;;;;5054105;28;20052;-79
2022/07/23 12:18:36;;;;;;;8.98;5.00;;;42.50;39.80;;;;;;4719184;28;10001461;-90
2022/07/23 12:21:04;;;;;;;8.02;5.22;;;42.50;40.70;;;;;;5055607;28;20025;-86
2022/07/23 12:23:29;;;;;;;10.07;5.80;;;42.50;41.20;;;;;;5047687;28;20060;-83
2022/07/23 12:26:00;;;;;;;8.65;5.15;;;42.60;41.60;;;;;;5042491;28;20506;-80
2022/07/23 12:28:32;;;;;;;27.48;5.55;;;42.80;42.10;;;;;;5047154;28;20026;-82
2022/07/23 12:30:59;;;;;;;9.27;4.90;;;42.60;40.70;;;;;;5046315;28;20136;-79
2022/07/23 12:33:32;;;;;;;7.05;5.05;;;42.50;41.10;;;;;;5034761;28;20428;-84
2022/07/23 12:36:03;;;;;;;9.52;5.22;;;42.30;41.10;;;;;;5044627;28;20036;-81
2022/07/23 12:38:44;;;;;;;8.82;5.15;;;42.20;39.60;;;;;;5051770;28;20020;-80
2022/07/23 12:41:09;;;;;;;8.35;4.70;;;41.90;40.90;;;;;;5053024;28;20108;-81
2022/07/23 12:43:43;;;;;;;6.53;5.05;;;42.20;40.60;;;;;;5055199;28;20123;-89
2022/07/23 12:46:11;;;;;;;7.13;5.07;;;42.70;40.60;;;;;;5055475;28;20191;-86
2022/07/23 12:48:51;;;;;;;7.78;4.70;;;42.90;40.20;;;;;;5053635;28;20029;-91
2022/07/23 12:51:32;;;;;;;11.95;5.50;;;43.20;41.10;;;;;;5053595;28;20021;-79
2022/07/23 12:54:09;;;;;;;10.80;4.93;;;43.30;39.90;;;;;;5055207;28;20025;-81